Time;durP1;ratioP1;P1;durP2;ratioP2;P2;SDS_P1;SDS_P2;PMS_P1;PMS_P2;Temp;Humidity;BMP_temperature;BMP_pressure;BME280_temperature;BME280_humidity;BME280_pressure;Samples;Min_cycle;Max_cycle;Signal;HPM_P1;HPM_P2
2023/08/19 00:01:28;;;;;;;12.87;11.07;;;19.40;99.90;;;19.29;100.00;97965.00;4944770;28;20540;-69
2023/08/19 00:03:55;;;;;;;12.23;11.20;;;19.40;99.90;;;19.28;100.00;97975.16;4950251;29;20449;-69
2023/08/19 00:06:37;;;;;;;11.83;10.70;;;19.40;99.90;;;19.47;98.84;97972.66;4947146;28;20455;-69
2023/08/19 00:09:08;;;;;;;12.80;11.20;;;19.40;99.90;;;19.57;97.59;97973.75;4944566;29;20515;-69
2023/08/19 00:11:37;;;;;;;12.80;11.50;;;19.40;99.90;;;19.42;97.30;97964.47;4952061;29;20517;-70
2023/08/19 00:14:06;;;;;;;11.83;10.83;;;19.60;99.90;;;19.21;98.58;97937.09;4937110;28;20465;-70
2023/08/19 00:16:33;;;;;;;12.40;11.30;;;19.60;99.90;;;19.31;99.14;97965.56;4935512;29;20892;-71
2023/08/19 00:19:02;;;;;;;12.53;11.33;;;19.60;99.90;;;19.23;99.81;97973.22;4935644;29;20529;-70
2023/08/19 00:21:29;;;;;;;11.87;10.80;;;19.60;99.90;;;19.20;100.00;97968.31;4934808;29;20546;-71
2023/08/19 00:23:57;;;;;;;12.73;11.53;;;19.60;99.90;;;19.21;99.97;97961.72;4950100;28;20516;-70
2023/08/19 00:26:26;;;;;;;11.43;10.33;;;19.50;99.90;;;19.14;99.58;97946.66;4943549;28;20458;-70
2023/08/19 00:28:53;;;;;;;11.27;10.27;;;19.50;99.90;;;19.13;100.00;97956.78;4939761;29;20536;-70
2023/08/19 00:31:20;;;;;;;12.03;11.00;;;19.40;99.90;;;19.02;100.00;97960.59;4934331;29;20538;-70
2023/08/19 00:33:47;;;;;;;10.93;10.03;;;19.40;99.90;;;18.94;100.00;97968.25;4940997;29;20950;-70
2023/08/19 00:36:14;;;;;;;13.27;12.00;;;19.20;99.90;;;18.84;100.00;97965.47;4936613;28;20527;-70
2023/08/19 00:38:41;;;;;;;11.43;10.50;;;19.10;99.90;;;18.84;100.00;97957.28;4934965;29;20575;-71
2023/08/19 00:41:10;;;;;;;12.73;11.27;;;19.00;99.90;;;18.79;100.00;97958.06;4934339;29;20460;-68
2023/08/19 00:43:37;;;;;;;13.67;12.27;;;19.00;99.90;;;18.83;100.00;97952.91;4944939;29;20856;-72
2023/08/19 00:46:08;;;;;;;12.53;11.30;;;19.10;99.90;;;18.90;100.00;97964.41;4945565;28;20871;-70
2023/08/19 00:48:35;;;;;;;12.70;11.60;;;19.10;99.90;;;18.82;100.00;97967.66;4934957;29;20465;-70
2023/08/19 00:51:05;;;;;;;12.13;11.13;;;19.10;99.90;;;18.84;100.00;97965.47;4934645;29;20512;-70
2023/08/19 00:53:34;;;;;;;12.67;11.53;;;19.00;99.90;;;18.92;100.00;97956.75;4934802;29;20551;-70
2023/08/19 00:56:01;;;;;;;13.80;12.43;;;19.00;99.90;;;18.97;100.00;97953.19;4946067;28;20497;-69
2023/08/19 00:58:30;;;;;;;13.33;12.13;;;19.00;99.90;;;19.05;100.00;97954.59;4941706;29;20486;-69
2023/08/19 01:00:57;;;;;;;12.87;11.67;;;19.10;99.90;;;19.11;99.92;97956.25;4935288;29;20464;-69
2023/08/19 01:03:25;;;;;;;12.83;11.63;;;19.10;99.90;;;19.10;99.16;97955.41;4934714;29;20539;-69
2023/08/19 01:06:03;;;;;;;12.97;11.73;;;19.10;99.90;;;19.05;99.05;97960.09;4939306;28;20876;-69
2023/08/19 01:08:45;;;;;;;11.63;10.50;;;19.10;99.90;;;19.05;98.56;97965.56;4949387;28;21162;-69
2023/08/19 01:11:20;;;;;;;11.90;10.90;;;19.00;99.90;;;19.07;98.09;97972.38;4935715;29;20535;-70
2023/08/19 01:13:59;;;;;;;12.27;11.17;;;19.00;99.90;;;18.83;99.13;97974.78;4935035;29;20502;-69
2023/08/19 01:16:29;;;;;;;12.00;10.80;;;19.00;99.90;;;18.60;100.00;97965.16;4949465;29;20455;-70
2023/08/19 01:18:57;;;;;;;12.03;10.80;;;18.90;99.90;;;18.54;100.00;97950.63;4937093;28;20536;-69
2023/08/19 01:21:25;;;;;;;12.33;11.23;;;18.80;99.90;;;18.59;100.00;97941.63;4941281;29;20487;-70
2023/08/19 01:23:55;;;;;;;12.50;11.40;;;18.80;99.90;;;18.57;100.00;97933.69;4934367;29;20463;-68
2023/08/19 01:26:24;;;;;;;12.00;11.00;;;18.80;99.90;;;18.73;100.00;97939.19;4934002;29;20463;-71
2023/08/19 01:28:51;;;;;;;12.07;10.87;;;18.80;99.90;;;18.73;100.00;97930.97;4934058;29;20931;-69
2023/08/19 01:31:19;;;;;;;12.13;10.93;;;18.80;99.90;;;18.78;99.91;97948.22;4947691;28;20476;-68
2023/08/19 01:33:46;;;;;;;12.67;11.47;;;18.80;99.90;;;18.86;98.73;97957.00;4945994;29;20452;-71
2023/08/19 01:36:23;;;;;;;12.17;11.03;;;18.80;99.90;;;18.84;98.70;97943.59;4941972;29;20844;-69
2023/08/19 01:38:59;;;;;;;12.93;11.70;;;18.80;99.90;;;18.82;98.54;97940.31;4948063;28;20505;-69
2023/08/19 01:41:28;;;;;;;13.73;12.07;;;18.80;99.90;;;18.85;98.39;97938.94;4936174;29;20504;-69
2023/08/19 01:43:56;;;;;;;12.70;11.50;;;18.80;99.90;;;18.82;98.31;97945.78;4945959;28;20463;-69
2023/08/19 01:46:24;;;;;;;12.40;11.20;;;18.80;99.90;;;18.36;98.80;97884.41;4943424;29;20461;-69
2023/08/19 01:48:51;;;;;;;12.20;11.03;;;18.70;99.90;;;18.68;99.21;97934.56;4945397;29;20501;-68
2023/08/19 01:51:18;;;;;;;11.33;10.23;;;18.70;99.90;;;18.27;98.79;97869.59;4947070;29;20945;-69
2023/08/19 01:53:45;;;;;;;11.03;10.03;;;18.70;99.90;;;18.64;98.93;97928.78;4954625;28;20972;-69
2023/08/19 01:56:13;;;;;;;11.30;10.30;;;18.60;99.90;;;18.59;98.95;97931.53;4951271;28;20461;-70
2023/08/19 01:58:41;;;;;;;12.17;10.97;;;18.60;99.90;;;18.58;98.98;97935.34;4956396;28;20489;-68
2023/08/19 02:01:11;;;;;;;11.13;10.20;;;18.60;99.90;;;18.57;98.97;97933.69;4933103;29;20461;-69
2023/08/19 02:03:39;;;;;;;11.50;10.40;;;18.60;99.90;;;18.52;98.83;97930.94;4937587;29;20460;-70
2023/08/19 02:06:06;;;;;;;11.73;10.63;;;18.50;99.90;;;18.49;99.35;97936.97;4954354;29;20465;-69
2023/08/19 02:08:34;;;;;;;14.63;10.30;;;18.40;99.90;;;18.51;99.14;97938.34;4943158;29;20450;-69
2023/08/19 02:11:01;;;;;;;13.30;11.77;;;18.40;99.90;;;18.46;99.86;97948.44;4945301;29;20815;-69
2023/08/19 02:13:28;;;;;;;12.73;11.40;;;18.30;99.90;;;18.38;99.64;97942.38;4955919;28;20463;-70
2023/08/19 02:15:56;;;;;;;10.90;9.90;;;18.30;99.90;;;18.37;100.00;97942.69;4947812;28;20545;-71
2023/08/19 02:18:25;;;;;;;13.27;9.53;;;18.30;99.90;;;18.35;100.00;97937.47;4932849;29;20565;-70
2023/08/19 02:20:52;;;;;;;11.40;10.30;;;18.30;99.90;;;18.46;98.98;97932.03;4947528;29;20454;-70
2023/08/19 02:23:19;;;;;;;11.87;10.87;;;18.40;99.90;;;18.40;99.04;97940.19;4932553;29;20454;-70
2023/08/19 02:25:47;;;;;;;10.63;9.63;;;18.40;99.90;;;18.35;99.29;97944.81;4944663;29;20519;-69
2023/08/19 02:28:14;;;;;;;11.43;10.43;;;18.30;99.90;;;18.22;99.91;97930.59;4936003;28;20528;-69
2023/08/19 02:30:41;;;;;;;11.30;10.40;;;18.20;99.90;;;18.25;99.74;97932.78;4934338;29;20458;-69
2023/08/19 02:33:09;;;;;;;12.70;9.43;;;18.20;99.90;;;18.10;99.41;97910.84;4934334;29;20458;-68
2023/08/19 02:35:36;;;;;;;10.40;9.40;;;18.30;99.90;;;18.22;99.46;97936.06;4941517;29;20458;-70
2023/08/19 02:38:04;;;;;;;10.27;9.00;;;18.20;99.90;;;18.20;99.63;97940.97;4941593;29;21180;-69
2023/08/19 02:40:32;;;;;;;10.20;9.20;;;18.20;99.90;;;18.25;99.01;97940.16;4947849;28;20496;-69
2023/08/19 02:42:59;;;;;;;11.57;10.47;;;18.20;99.90;;;18.20;99.09;97940.13;4945341;29;20457;-68
2023/08/19 02:45:27;;;;;;;9.80;8.70;;;18.20;99.90;;;17.96;100.00;97930.44;4950024;28;21008;-69
2023/08/19 02:47:54;;;;;;;12.70;9.20;;;18.20;99.90;;;17.86;100.00;97935.03;4944587;29;20978;-69
2023/08/19 02:50:23;;;;;;;10.80;9.40;;;18.10;99.90;;;17.88;100.00;97938.31;4937269;29;20482;-70
2023/08/19 02:52:50;;;;;;;10.23;9.20;;;18.10;99.90;;;17.80;100.00;97932.25;4945396;28;20457;-68
2023/08/19 02:55:17;;;;;;;11.53;10.37;;;18.20;99.90;;;17.73;100.00;97925.38;4936159;29;20470;-70
2023/08/19 02:57:45;;;;;;;9.83;9.03;;;18.00;99.90;;;17.69;100.00;97925.13;4944003;28;20492;-70
2023/08/19 03:00:14;;;;;;;9.17;8.40;;;18.10;99.90;;;17.68;100.00;97934.41;4959552;28;20508;-68
2023/08/19 03:02:41;;;;;;;11.63;10.43;;;18.00;99.90;;;17.70;100.00;97929.50;4946970;28;20458;-69
2023/08/19 03:05:10;;;;;;;10.80;9.80;;;18.00;99.90;;;17.76;100.00;97924.88;4932553;29;20520;-70
2023/08/19 03:07:39;;;;;;;9.23;8.43;;;18.00;99.90;;;17.75;100.00;97926.78;4956061;28;20504;-69
2023/08/19 03:10:08;;;;;;;9.63;8.70;;;18.00;99.90;;;17.58;100.00;97910.56;4942629;29;20470;-70
2023/08/19 03:12:35;;;;;;;9.97;9.03;;;18.00;99.90;;;17.74;100.00;97938.78;4946980;28;20481;-69
2023/08/19 03:15:03;;;;;;;9.70;8.87;;;18.00;99.90;;;17.78;100.00;97937.16;4940500;29;20966;-69
2023/08/19 03:17:30;;;;;;;9.73;8.80;;;18.10;99.90;;;17.75;100.00;97934.97;4938065;29;20852;-68
2023/08/19 03:19:57;;;;;;;10.77;9.67;;;18.10;99.90;;;17.69;100.00;97928.66;4936018;29;20523;-69
2023/08/19 03:22:25;;;;;;;10.13;9.10;;;18.00;99.90;;;17.71;100.00;97928.41;4939790;29;20458;-70
2023/08/19 03:24:53;;;;;;;9.70;8.80;;;18.00;99.90;;;17.65;100.00;97932.16;4946847;29;20455;-69
2023/08/19 03:27:20;;;;;;;9.83;8.93;;;18.00;99.90;;;17.59;100.00;97928.63;4933855;29;20458;-69
2023/08/19 03:29:48;;;;;;;10.30;9.50;;;17.90;99.90;;;17.59;100.00;97925.03;4948331;28;21034;-69
2023/08/19 03:32:15;;;;;;;10.70;9.70;;;17.80;99.90;;;17.51;100.00;97927.16;4943779;29;20865;-69
2023/08/19 03:34:42;;;;;;;11.77;9.10;;;17.80;99.90;;;17.52;100.00;97925.28;4941867;29;20450;-69
2023/08/19 03:37:09;;;;;;;10.00;9.10;;;17.80;99.90;;;17.40;100.00;97934.47;4938843;28;20463;-70
2023/08/19 03:39:36;;;;;;;11.03;10.13;;;17.80;99.90;;;17.43;100.00;97946.78;4936135;29;20481;-69
2023/08/19 03:42:06;;;;;;;9.83;9.00;;;17.70;99.90;;;17.50;100.00;97946.56;4938241;29;20501;-69
2023/08/19 03:44:33;;;;;;;10.47;9.47;;;17.70;99.90;;;17.07;100.00;97889.22;4946984;29;20946;-67
2023/08/19 03:47:00;;;;;;;11.17;9.83;;;17.70;99.90;;;17.46;100.00;97951.72;4960947;28;20457;-69
2023/08/19 03:49:27;;;;;;;11.00;9.83;;;17.80;99.90;;;17.35;100.00;97958.19;4936721;28;20512;-72
2023/08/19 03:51:54;;;;;;;10.30;9.40;;;17.70;99.90;;;17.50;100.00;97960.22;4947777;28;20469;-69
2023/08/19 03:54:21;;;;;;;9.80;8.77;;;17.70;99.90;;;17.36;100.00;97955.19;4939945;29;20870;-69
2023/08/19 03:56:49;;;;;;;10.93;9.83;;;17.60;99.90;;;17.28;100.00;97959.25;4954749;29;20465;-69
2023/08/19 03:59:17;;;;;;;12.53;10.53;;;17.60;99.90;;;17.35;100.00;97960.91;4945341;29;20490;-70
2023/08/19 04:01:45;;;;;;;11.03;9.93;;;17.60;99.90;;;17.32;100.00;97961.44;4935303;29;20465;-69
2023/08/19 04:04:12;;;;;;;10.80;9.70;;;17.60;99.90;;;17.37;100.00;97958.78;4935306;29;20831;-70
2023/08/19 04:06:39;;;;;;;11.50;10.40;;;17.60;99.90;;;17.39;100.00;97962.06;4946193;29;20465;-70
2023/08/19 04:09:08;;;;;;;10.03;9.23;;;17.70;99.90;;;17.34;100.00;97967.47;4954123;28;20530;-69
2023/08/19 04:11:35;;;;;;;15.30;8.90;;;17.70;99.90;;;17.33;100.00;97968.53;4945003;28;20592;-69
2023/08/19 04:14:03;;;;;;;12.10;10.90;;;17.70;99.90;;;17.35;100.00;97964.47;4937522;29;21018;-70
2023/08/19 04:16:31;;;;;;;10.97;9.93;;;17.70;99.90;;;17.36;100.00;97978.94;4966814;28;20511;-69
2023/08/19 04:18:59;;;;;;;10.60;9.70;;;17.70;99.90;;;17.37;100.00;97961.50;4943612;28;20545;-68
2023/08/19 04:21:26;;;;;;;11.13;10.10;;;17.70;99.90;;;17.42;100.00;97969.72;4934563;29;20896;-68
2023/08/19 04:23:53;;;;;;;10.77;9.77;;;17.80;99.90;;;17.45;100.00;97969.19;4950708;28;20468;-68
2023/08/19 04:26:20;;;;;;;10.10;9.07;;;17.80;99.90;;;17.52;100.00;97978.00;4942432;29;20528;-68
2023/08/19 04:28:47;;;;;;;10.03;9.07;;;17.80;99.90;;;17.59;100.00;97977.78;4934222;29;20450;-70
2023/08/19 04:31:15;;;;;;;10.17;9.00;;;17.90;99.90;;;17.55;100.00;97969.28;4934007;29;20499;-68
2023/08/19 04:33:43;;;;;;;11.57;10.47;;;17.90;99.90;;;17.81;100.00;97983.09;4933915;29;20482;-69
2023/08/19 04:36:12;;;;;;;9.73;8.93;;;18.10;99.90;;;18.19;97.47;97984.97;4942988;29;20456;-69
2023/08/19 04:38:39;;;;;;;10.10;8.83;;;18.50;99.90;;;18.53;94.24;97979.94;4935816;29;20488;-70
2023/08/19 04:41:06;;;;;;;10.23;9.43;;;18.90;97.30;;;18.90;91.79;97980.84;4942205;28;20862;-69
2023/08/19 04:43:34;;;;;;;10.30;8.73;;;19.30;96.00;;;19.28;89.01;97990.75;4944740;28;20465;-69
2023/08/19 04:46:02;;;;;;;9.37;8.47;;;19.80;94.50;;;19.56;87.30;97991.31;4943175;29;20454;-70
2023/08/19 04:48:30;;;;;;;9.60;8.80;;;20.20;93.50;;;19.64;84.80;97939.50;4949321;28;21059;-70
2023/08/19 04:51:00;;;;;;;13.83;8.23;;;20.70;92.70;;;20.13;82.85;97999.47;4958367;28;20558;-70
2023/08/19 04:53:27;;;;;;;8.37;7.67;;;21.00;91.80;;;20.44;81.11;98005.66;4949527;28;20830;-69
2023/08/19 04:55:59;;;;;;;8.20;7.50;;;21.30;91.40;;;20.44;79.85;97991.13;4944734;29;20524;-69
2023/08/19 04:58:27;;;;;;;8.27;7.57;;;21.30;91.00;;;20.29;80.43;98008.44;4948448;29;20532;-70
2023/08/19 05:00:54;;;;;;;8.80;7.97;;;21.20;90.90;;;20.31;80.70;98006.25;4934573;29;20963;-69
2023/08/19 05:03:21;;;;;;;8.20;7.50;;;21.10;91.00;;;20.29;80.28;98009.28;4949499;28;20498;-70
2023/08/19 05:05:49;;;;;;;7.60;6.90;;;21.10;91.00;;;20.37;80.64;98011.44;4963151;28;20461;-69
2023/08/19 05:08:18;;;;;;;8.10;7.50;;;21.10;91.10;;;20.63;79.05;98008.59;4949055;28;20551;-69
2023/08/19 05:10:45;;;;;;;8.10;7.40;;;21.40;90.90;;;21.14;77.05;98009.41;4946224;29;20444;-70
2023/08/19 05:13:12;;;;;;;12.37;8.00;;;21.90;90.60;;;21.09;76.72;98003.97;4944058;28;20468;-69
2023/08/19 05:15:39;;;;;;;7.77;7.07;;;22.10;90.20;;;21.31;75.62;98010.97;4942575;29;20547;-69
2023/08/19 05:18:07;;;;;;;7.07;6.47;;;22.30;90.00;;;21.87;73.73;98006.09;4947173;28;20876;-70
2023/08/19 05:20:34;;;;;;;7.40;6.80;;;22.60;89.70;;;22.67;70.21;98011.28;4949715;28;20451;-70
2023/08/19 05:23:01;;;;;;;8.13;7.43;;;23.30;88.40;;;23.04;67.89;98010.47;4949026;29;20486;-68
2023/08/19 05:25:30;;;;;;;7.33;6.70;;;23.80;87.20;;;22.79;68.65;98017.19;4934311;28;20946;-68
2023/08/19 05:27:57;;;;;;;9.70;7.40;;;24.00;86.10;;;22.84;68.56;98019.88;4934789;29;20525;-70
2023/08/19 05:30:25;;;;;;;6.80;6.20;;;24.00;85.80;;;23.15;66.73;98022.19;4933966;29;20506;-69
2023/08/19 05:32:52;;;;;;;7.93;7.33;;;24.30;84.90;;;23.15;67.28;98027.69;4945869;28;20537;-69
2023/08/19 05:35:19;;;;;;;8.07;7.30;;;24.20;85.00;;;23.48;66.19;98029.69;4943438;28;20462;-69
2023/08/19 05:37:46;;;;;;;8.93;7.60;;;24.40;84.50;;;23.47;64.16;97956.38;4937907;29;20515;-70
2023/08/19 05:40:13;;;;;;;6.67;6.07;;;24.70;84.00;;;23.84;63.62;98025.53;4951642;28;20485;-69
2023/08/19 05:42:42;;;;;;;7.73;7.03;;;24.80;83.30;;;24.24;63.43;98028.69;4945047;29;20462;-69
2023/08/19 05:45:10;;;;;;;7.20;6.60;;;25.00;83.30;;;24.53;61.57;98027.56;4955443;28;20513;-69
2023/08/19 05:47:37;;;;;;;7.03;6.30;;;25.20;82.50;;;25.03;60.10;98029.56;4948567;28;20821;-69
2023/08/19 05:50:07;;;;;;;6.10;5.70;;;25.50;81.80;;;25.50;58.71;98031.28;4940911;29;20557;-69
2023/08/19 05:52:34;;;;;;;6.93;6.33;;;25.70;81.40;;;25.46;58.65;98022.75;4932693;29;20532;-69
2023/08/19 05:55:01;;;;;;;7.23;6.73;;;25.80;80.90;;;23.94;62.55;98036.38;4933800;29;20533;-70
2023/08/19 05:57:29;;;;;;;6.93;6.33;;;25.20;81.10;;;23.56;65.44;98045.56;4948668;28;20462;-70
2023/08/19 05:59:58;;;;;;;7.13;6.60;;;24.40;82.80;;;22.89;67.79;98039.06;4932696;29;21038;-71
2023/08/19 06:02:25;;;;;;;7.57;6.97;;;23.60;84.20;;;22.35;70.53;98043.84;4940792;29;20467;-72
2023/08/19 06:04:52;;;;;;;7.73;7.03;;;22.80;85.90;;;22.13;71.39;98042.41;4933409;29;20453;-72
2023/08/19 06:07:25;;;;;;;7.70;6.87;;;22.50;87.00;;;21.93;72.44;98032.47;4947709;29;20460;-72
2023/08/19 06:09:52;;;;;;;8.20;7.50;;;22.20;87.80;;;21.53;74.38;98043.47;4948497;28;20446;-72
2023/08/19 06:12:20;;;;;;;7.73;7.13;;;21.80;88.70;;;21.56;75.00;98047.59;4942022;29;20471;-72
2023/08/19 06:14:47;;;;;;;7.63;7.03;;;21.70;89.40;;;21.73;74.79;98055.47;4939472;29;20511;-72
2023/08/19 06:17:15;;;;;;;7.20;6.60;;;21.80;89.90;;;21.99;73.86;98047.78;4936048;28;20541;-71
2023/08/19 06:19:42;;;;;;;9.03;7.67;;;21.90;90.00;;;21.98;73.79;98054.41;4935006;29;20961;-72
2023/08/19 06:22:09;;;;;;;8.27;7.50;;;21.90;89.90;;;21.96;73.91;98056.63;4940280;29;20469;-71
2023/08/19 06:24:37;;;;;;;8.00;7.20;;;22.10;90.00;;;22.03;73.87;98057.09;4950140;29;20458;-71
2023/08/19 06:27:04;;;;;;;8.07;7.37;;;22.10;90.00;;;21.85;75.15;98063.31;4936000;29;20467;-72
2023/08/19 06:29:31;;;;;;;9.47;8.67;;;22.20;90.10;;;21.75;75.49;98048.53;4949472;29;20469;-73
2023/08/19 06:31:59;;;;;;;8.43;7.73;;;22.20;90.10;;;21.79;76.03;98063.38;4946370;29;20462;-73
2023/08/19 06:34:28;;;;;;;8.30;7.60;;;22.10;90.20;;;22.01;75.30;98056.56;4946998;29;20470;-71
2023/08/19 06:37:01;;;;;;;7.43;6.73;;;22.30;90.20;;;22.18;74.48;98053.38;4958334;28;20457;-73
2023/08/19 06:39:30;;;;;;;8.47;7.67;;;22.40;90.10;;;22.12;74.11;98023.47;4948868;29;20536;-74
2023/08/19 06:42:06;;;;;;;7.87;7.17;;;22.60;90.10;;;22.39;73.42;98033.09;4945457;28;20533;-73
2023/08/19 06:44:35;;;;;;;10.67;8.20;;;22.70;90.00;;;22.50;73.39;98067.63;4933816;29;20454;-72
2023/08/19 06:47:04;;;;;;;7.67;7.10;;;22.80;89.90;;;22.41;74.16;98056.44;4952125;28;20474;-72
2023/08/19 06:49:34;;;;;;;8.33;7.70;;;22.70;90.00;;;22.74;72.86;98066.81;4948296;28;20461;-72
2023/08/19 06:52:01;;;;;;;7.80;7.20;;;22.90;89.90;;;22.74;72.28;98059.34;4951236;28;20553;-72
2023/08/19 06:54:30;;;;;;;8.70;7.83;;;23.00;89.50;;;22.92;71.95;98057.75;4952074;29;20509;-72
2023/08/19 06:57:06;;;;;;;7.57;6.97;;;23.10;89.50;;;22.91;71.71;98067.13;4955394;28;20826;-71
2023/08/19 06:59:38;;;;;;;7.53;6.93;;;23.20;89.40;;;22.95;72.41;98072.06;4932597;29;20537;-72
2023/08/19 07:02:07;;;;;;;8.07;7.27;;;23.20;89.50;;;23.13;71.92;98067.69;4932647;29;20561;-72
2023/08/19 07:04:37;;;;;;;7.10;6.60;;;23.30;89.60;;;23.21;71.69;98065.06;4934351;29;20474;-72
2023/08/19 07:07:06;;;;;;;8.20;7.60;;;23.40;89.40;;;23.33;71.30;98067.41;4944667;29;20536;-71
2023/08/19 07:09:36;;;;;;;7.90;7.30;;;23.60;89.40;;;23.49;70.74;98079.03;4936910;29;20545;-73
2023/08/19 07:12:04;;;;;;;7.33;6.83;;;23.70;89.40;;;23.53;69.68;98056.38;4935745;29;20568;-73
2023/08/19 07:14:32;;;;;;;7.43;6.83;;;23.80;89.00;;;23.76;69.94;98085.78;4944797;29;20461;-72
2023/08/19 07:17:03;;;;;;;7.70;7.07;;;23.90;89.00;;;23.96;69.00;98081.03;4936544;29;20494;-72
2023/08/19 07:19:37;;;;;;;7.90;7.30;;;24.10;88.90;;;23.87;69.30;98085.59;4936504;29;20482;-72
2023/08/19 07:22:05;;;;;;;8.07;7.37;;;24.10;88.60;;;23.76;69.82;98066.47;4934259;29;20529;-72
2023/08/19 07:24:34;;;;;;;8.20;7.50;;;24.00;88.70;;;24.21;68.27;98078.97;4939848;29;20796;-72
2023/08/19 07:27:03;;;;;;;8.30;7.50;;;24.30;88.70;;;24.37;67.62;98065.69;4954049;29;20796;-72
2023/08/19 07:29:31;;;;;;;8.30;7.60;;;24.50;88.70;;;24.57;66.56;98078.28;4934736;29;20830;-72
2023/08/19 07:31:59;;;;;;;7.50;7.00;;;24.60;87.90;;;24.69;66.79;98075.00;4941479;29;20461;-72
2023/08/19 07:34:28;;;;;;;8.63;7.50;;;24.80;87.80;;;24.79;65.87;98065.72;4943805;29;20958;-73
2023/08/19 07:36:57;;;;;;;7.87;7.17;;;25.00;87.40;;;24.83;65.19;98075.03;4949035;29;20552;-73
2023/08/19 07:39:25;;;;;;;7.30;6.60;;;25.00;86.70;;;25.01;64.88;98077.97;4948105;28;20528;-72
2023/08/19 07:41:53;;;;;;;6.67;6.17;;;25.20;86.70;;;25.09;64.13;98079.19;4937099;28;20949;-73
2023/08/19 07:44:20;;;;;;;7.20;6.67;;;25.20;86.20;;;25.13;63.36;98080.19;4935960;29;20465;-74
2023/08/19 07:46:47;;;;;;;7.63;6.93;;;25.40;85.80;;;25.27;63.67;98080.19;4951262;28;20459;-73
2023/08/19 07:49:14;;;;;;;7.60;7.00;;;25.40;85.80;;;25.32;63.04;98077.28;4963933;28;20444;-73
2023/08/19 07:51:41;;;;;;;6.60;6.10;;;25.50;85.50;;;25.36;61.90;98083.81;4943508;29;20512;-72
2023/08/19 07:54:10;;;;;;;7.30;6.60;;;25.60;84.60;;;25.54;61.97;98089.53;4936344;29;20460;-72
2023/08/19 07:56:37;;;;;;;7.00;6.50;;;25.60;84.70;;;25.37;61.82;98082.69;4955119;28;20457;-72
2023/08/19 07:59:04;;;;;;;7.97;7.37;;;25.60;84.40;;;25.46;62.01;98085.53;4935866;29;20790;-72
2023/08/19 08:01:32;;;;;;;8.00;7.20;;;25.60;84.50;;;25.67;61.49;98087.84;4949447;29;20749;-73
2023/08/19 08:03:59;;;;;;;6.97;6.40;;;25.80;84.50;;;25.72;61.50;98080.25;4935797;29;20496;-72
2023/08/19 08:06:26;;;;;;;7.97;7.30;;;25.90;84.40;;;25.89;60.86;98081.50;4964188;28;20600;-72
2023/08/19 08:08:53;;;;;;;7.50;6.90;;;26.00;83.90;;;25.98;59.68;98076.81;4948794;29;20523;-72
2023/08/19 08:11:22;;;;;;;6.60;6.10;;;26.10;83.10;;;26.16;59.12;98077.75;4938856;29;20807;-72
2023/08/19 08:13:49;;;;;;;7.80;6.50;;;26.20;83.00;;;26.15;59.38;98078.06;4937142;29;20456;-72
2023/08/19 08:16:16;;;;;;;7.20;6.60;;;26.30;82.80;;;26.25;58.97;98082.56;4943848;28;20472;-72
2023/08/19 08:18:43;;;;;;;7.30;6.80;;;26.40;82.30;;;26.24;59.25;98067.88;4940243;29;20488;-73
2023/08/19 08:21:10;;;;;;;6.30;5.80;;;26.40;82.40;;;26.36;58.80;98066.47;4949868;29;21011;-72
2023/08/19 08:23:38;;;;;;;6.67;6.17;;;26.50;82.10;;;26.44;57.78;98069.28;4953635;29;20944;-73
2023/08/19 08:26:05;;;;;;;6.70;6.10;;;26.60;81.50;;;26.56;57.84;98073.41;4939454;29;20791;-73
2023/08/19 08:28:33;;;;;;;6.07;5.67;;;26.70;81.30;;;26.79;57.28;98065.81;4945925;29;20518;-73
2023/08/19 08:31:01;;;;;;;6.50;5.90;;;26.80;81.10;;;26.95;57.47;98066.19;4938706;29;20458;-71
2023/08/19 08:33:28;;;;;;;7.60;6.90;;;27.00;81.40;;;26.69;57.66;98060.56;4945711;29;20484;-72
2023/08/19 08:35:55;;;;;;;6.60;6.00;;;27.00;80.90;;;26.76;57.52;98066.44;4940617;29;20454;-71
2023/08/19 08:38:23;;;;;;;6.63;6.10;;;27.00;80.90;;;26.78;56.25;98064.19;4939218;29;20462;-71
2023/08/19 08:40:51;;;;;;;6.67;6.10;;;26.90;79.80;;;26.98;55.82;98070.28;4952070;28;20481;-71
2023/08/19 08:43:18;;;;;;;6.80;6.30;;;27.10;79.60;;;27.03;55.64;98066.56;4947052;28;20799;-72
2023/08/19 08:45:48;;;;;;;5.87;5.33;;;27.20;79.30;;;27.14;55.24;98070.63;4935756;29;20513;-71
2023/08/19 08:48:17;;;;;;;5.70;5.30;;;27.30;78.80;;;27.25;54.88;98068.38;4944067;29;20865;-72
2023/08/19 08:50:45;;;;;;;5.93;5.53;;;27.40;78.50;;;27.23;53.35;98017.97;4938168;29;20541;-72
2023/08/19 08:53:14;;;;;;;5.77;5.37;;;27.60;77.90;;;27.64;53.24;98071.34;4942491;29;20450;-72
2023/08/19 08:55:41;;;;;;;5.40;5.00;;;27.80;77.50;;;27.64;52.67;98066.59;4952091;29;20473;-72
2023/08/19 08:58:09;;;;;;;6.00;5.50;;;27.80;76.40;;;27.65;51.97;98078.53;4939228;28;20860;-73
2023/08/19 09:00:40;;;;;;;5.90;5.40;;;27.90;75.70;;;27.64;51.34;98049.94;4945610;29;20481;-72
2023/08/19 09:03:10;;;;;;;5.70;5.30;;;27.90;74.90;;;27.66;51.05;98069.84;4933930;29;20459;-73
2023/08/19 09:05:40;;;;;;;5.80;5.30;;;27.90;74.60;;;27.77;51.05;98081.44;4945345;29;20552;-73
2023/08/19 09:08:13;;;;;;;5.40;5.00;;;27.90;74.20;;;27.98;50.55;98078.81;4945706;29;20457;-72
2023/08/19 09:10:43;;;;;;;6.63;5.87;;;28.10;74.00;;;27.82;50.67;98074.88;4937708;29;20486;-72
2023/08/19 09:13:14;;;;;;;5.73;5.33;;;28.00;73.80;;;27.96;51.20;98088.59;4942737;28;20465;-73
2023/08/19 09:15:41;;;;;;;5.20;4.80;;;28.10;74.40;;;28.25;50.42;98084.31;4941067;29;20470;-73
2023/08/19 09:18:10;;;;;;;5.60;5.20;;;28.30;73.70;;;28.17;49.24;98088.75;4948292;28;20986;-72
2023/08/19 09:20:40;;;;;;;5.30;4.80;;;28.30;71.90;;;28.09;48.42;98095.09;4937715;29;20489;-71
2023/08/19 09:23:09;;;;;;;5.87;4.73;;;28.30;71.10;;;28.23;49.09;98086.63;4946223;28;20482;-72
2023/08/19 09:25:37;;;;;;;4.87;4.57;;;28.30;71.60;;;28.34;48.63;98087.06;4940678;29;20518;-72
2023/08/19 09:28:05;;;;;;;5.10;4.70;;;28.50;71.20;;;28.31;48.14;98059.97;4947618;28;20466;-71
2023/08/19 09:30:33;;;;;;;4.53;4.23;;;28.50;71.40;;;28.67;47.65;98083.66;4941789;28;20496;-73
2023/08/19 09:33:01;;;;;;;4.43;4.10;;;28.70;70.80;;;28.76;46.98;98084.44;4947841;28;20447;-73
2023/08/19 09:35:37;;;;;;;5.20;4.80;;;28.90;70.00;;;28.71;48.13;98079.03;4947382;29;20573;-73
2023/08/19 09:38:05;;;;;;;5.40;4.87;;;28.90;70.60;;;28.73;47.90;98081.50;4933660;29;20526;-72
2023/08/19 09:40:32;;;;;;;4.87;4.53;;;28.90;69.90;;;28.75;47.32;98085.59;4944463;29;21008;-72
2023/08/19 09:42:59;;;;;;;5.60;4.70;;;28.90;69.80;;;28.73;47.79;98076.75;4937234;28;20455;-73
2023/08/19 09:45:28;;;;;;;4.90;4.43;;;28.90;69.60;;;28.89;47.56;98060.34;4942977;29;20453;-72
2023/08/19 09:47:55;;;;;;;4.50;4.20;;;29.00;69.80;;;28.91;47.08;98071.16;4951808;28;20443;-73
2023/08/19 09:50:24;;;;;;;4.50;4.10;;;29.00;69.30;;;29.02;46.61;98069.56;4937648;29;20447;-73
2023/08/19 09:52:58;;;;;;;5.37;4.93;;;29.10;68.80;;;28.80;47.58;98068.75;4957239;28;20525;-73
2023/08/19 09:55:27;;;;;;;5.20;4.83;;;29.00;69.30;;;29.03;47.58;98062.88;4942193;28;20465;-73
2023/08/19 09:57:56;;;;;;;5.23;4.77;;;29.10;69.60;;;29.09;47.74;98061.53;4933504;29;20467;-72
2023/08/19 10:00:23;;;;;;;5.43;4.93;;;29.30;69.30;;;28.98;47.81;98065.84;4943698;29;20839;-73
2023/08/19 10:02:51;;;;;;;5.63;5.23;;;29.10;69.40;;;29.26;47.20;98065.34;4932563;29;20466;-75
2023/08/19 10:05:18;;;;;;;5.13;4.67;;;29.30;69.40;;;29.30;47.07;98063.50;4936213;29;20451;-73
2023/08/19 10:07:51;;;;;;;5.40;4.97;;;29.30;69.10;;;29.51;46.93;98071.06;4933554;29;20455;-73
2023/08/19 10:10:21;;;;;;;4.90;4.50;;;29.40;68.80;;;29.64;46.35;98067.16;4933382;29;20451;-73
2023/08/19 10:12:52;;;;;;;5.13;4.73;;;29.60;68.40;;;29.81;45.37;98065.41;4950173;28;20459;-72
2023/08/19 10:15:21;;;;;;;5.97;4.90;;;29.80;67.40;;;29.73;45.01;98066.28;4933214;29;20938;-73
2023/08/19 10:17:54;;;;;;;5.20;4.80;;;29.80;67.00;;;29.69;44.72;98066.13;4935221;29;20454;-73